Time;durP1;ratioP1;P1;durP2;ratioP2;P2;SDS_P1;SDS_P2;PMS_P1;PMS_P2;Temp;Humidity;BMP_temperature;BMP_pressure;BME280_temperature;BME280_humidity;BME280_pressure;Samples;Min_cycle;Max_cycle;Signal;HPM_P1;HPM_P2
2022/07/11 00:01:48;;;;;;;8.35;2.40;;;20.80;99.90;;;;;;5117551;28;20035;-88
2022/07/11 00:04:13;;;;;;;8.43;2.75;;;20.80;99.90;;;;;;5117311;27;20384;-88
2022/07/11 00:06:39;;;;;;;4.75;1.95;;;20.80;99.90;;;;;;5100370;27;20027;-88
2022/07/11 00:09:06;;;;;;;7.90;2.42;;;20.80;99.90;;;;;;5117496;28;20023;-89
2022/07/11 00:11:35;;;;;;;9.02;2.50;;;20.80;99.90;;;;;;5096965;28;20062;-88
2022/07/11 00:14:01;;;;;;;8.93;2.42;;;20.80;99.90;;;;;;5109446;28;20019;-88
2022/07/11 00:16:27;;;;;;;6.00;2.10;;;20.80;99.90;;;;;;5134704;27;20030;-88
2022/07/11 00:18:52;;;;;;;8.88;2.45;;;20.80;99.90;;;;;;5117498;28;20030;-88
2022/07/11 00:21:19;;;;;;;5.40;2.30;;;20.80;99.90;;;;;;5117241;28;20480;-88
2022/07/11 00:23:45;;;;;;;10.18;2.90;;;20.80;99.90;;;;;;5117821;28;20030;-88
2022/07/11 00:26:11;;;;;;;7.65;2.55;;;20.70;99.90;;;;;;5117330;28;20035;-88
2022/07/11 00:28:37;;;;;;;5.93;2.22;;;20.70;99.90;;;;;;5117686;28;20023;-88
2022/07/11 00:31:03;;;;;;;8.48;2.05;;;20.70;99.90;;;;;;5118366;28;20031;-88
2022/07/11 00:33:29;;;;;;;7.00;2.00;;;20.70;99.90;;;;;;5100230;28;20038;-88
2022/07/11 00:35:55;;;;;;;6.30;2.15;;;20.70;99.90;;;;;;5117383;28;20031;-88
2022/07/11 00:38:21;;;;;;;8.50;2.30;;;20.70;99.90;;;;;;5117627;28;20091;-88
2022/07/11 00:40:46;;;;;;;4.68;2.10;;;20.70;99.90;;;;;;5117064;28;20031;-87
2022/07/11 00:43:12;;;;;;;6.28;2.00;;;20.70;99.90;;;;;;5117097;28;20024;-88
2022/07/11 00:45:38;;;;;;;6.28;2.55;;;20.70;99.90;;;;;;5116841;28;20122;-88
2022/07/11 00:48:04;;;;;;;7.15;2.40;;;20.70;99.90;;;;;;5117539;28;20034;-90
2022/07/11 00:50:30;;;;;;;7.40;2.70;;;20.60;99.90;;;;;;5113350;28;20533;-89
2022/07/11 00:52:58;;;;;;;6.63;2.08;;;20.60;99.90;;;;;;5122753;28;20100;-90
2022/07/11 00:55:27;;;;;;;5.53;1.90;;;20.60;99.90;;;;;;5120355;27;20034;-90
2022/07/11 00:58:14;;;;;;;4.20;1.95;;;20.60;99.90;;;;;;5121090;27;20027;-90
2022/07/11 01:00:41;;;;;;;6.18;1.90;;;20.60;99.90;;;;;;5120882;27;20251;-90
2022/07/11 01:03:09;;;;;;;5.90;2.10;;;20.60;99.90;;;;;;5138262;27;20452;-90
2022/07/11 01:05:35;;;;;;;5.90;1.75;;;20.60;99.90;;;;;;5120435;27;20031;-90
2022/07/11 01:08:01;;;;;;;6.95;2.05;;;20.50;99.90;;;;;;5137503;27;20114;-90
2022/07/11 01:10:26;;;;;;;5.72;1.70;;;20.60;99.90;;;;;;5118617;27;20059;-91
2022/07/11 01:12:52;;;;;;;3.97;1.70;;;20.50;99.90;;;;;;5120484;27;20023;-91
2022/07/11 01:15:18;;;;;;;4.85;1.58;;;20.50;99.90;;;;;;5123334;27;20039;-88
2022/07/11 01:17:44;;;;;;;5.80;1.70;;;20.50;99.90;;;;;;5099950;28;20024;-88
2022/07/11 01:20:11;;;;;;;3.80;1.42;;;20.50;99.90;;;;;;5100357;28;20024;-88
2022/07/11 01:22:43;;;;;;;6.35;1.73;;;20.50;99.90;;;;;;5100515;28;20114;-88
2022/07/11 01:25:09;;;;;;;4.65;1.52;;;20.50;99.90;;;;;;5116597;28;20035;-88
2022/07/11 01:27:36;;;;;;;3.20;1.55;;;20.50;99.90;;;;;;5134334;27;20035;-88
2022/07/11 01:30:04;;;;;;;3.25;1.38;;;20.50;99.90;;;;;;5137728;27;20015;-88
2022/07/11 01:32:30;;;;;;;4.60;1.42;;;20.50;99.90;;;;;;5138299;27;20022;-88
2022/07/11 01:34:56;;;;;;;3.03;1.50;;;20.40;99.90;;;;;;5118049;27;20059;-88
2022/07/11 01:40:44;;;;;;;3.85;1.10;;;20.50;99.90;;;;;;5118914;28;20058;-88
2022/07/11 01:43:10;;;;;;;3.42;1.20;;;20.50;99.90;;;;;;5099811;28;20020;-88
2022/07/11 01:45:36;;;;;;;3.92;1.30;;;20.40;99.90;;;;;;5118035;27;20034;-88
2022/07/11 01:48:02;;;;;;;3.28;1.23;;;20.40;99.90;;;;;;5133644;27;20521;-88
2022/07/11 01:50:27;;;;;;;2.85;1.13;;;20.40;99.90;;;;;;5101082;27;20084;-88
2022/07/11 01:52:54;;;;;;;6.45;1.63;;;20.40;99.90;;;;;;5137451;27;20104;-88
2022/07/11 01:55:20;;;;;;;2.45;1.10;;;20.40;99.90;;;;;;5120975;27;20027;-88
2022/07/11 01:57:47;;;;;;;2.22;1.27;;;20.40;99.90;;;;;;5138291;27;20023;-89
2022/07/11 02:00:13;;;;;;;3.33;1.13;;;20.40;99.90;;;;;;5121037;27;20057;-88
2022/07/11 02:02:39;;;;;;;4.53;1.45;;;20.30;99.90;;;;;;5120579;27;20019;-88
2022/07/11 02:05:06;;;;;;;3.67;1.02;;;20.40;99.90;;;;;;5136912;27;20095;-88
2022/07/11 02:10:16;;;;;;;3.67;1.20;;;20.30;99.90;;;;;;5137718;27;20053;-88
2022/07/11 02:12:42;;;;;;;2.92;1.42;;;20.30;99.90;;;;;;5120677;27;20476;-88
2022/07/11 02:15:08;;;;;;;2.83;1.20;;;20.30;99.90;;;;;;5103600;27;20353;-88
2022/07/11 02:17:34;;;;;;;3.10;1.20;;;20.30;99.90;;;;;;5102659;27;20126;-88
2022/07/11 02:20:00;;;;;;;4.15;1.35;;;20.30;99.90;;;;;;5102350;27;20054;-88
2022/07/11 02:22:27;;;;;;;5.18;1.35;;;20.30;99.90;;;;;;5119961;27;20019;-89
2022/07/11 02:24:55;;;;;;;2.65;1.50;;;20.30;99.90;;;;;;5103842;27;20111;-88
2022/07/11 02:30:43;;;;;;;3.70;1.38;;;20.20;99.90;;;;;;5135349;27;20083;-88
2022/07/11 02:33:16;;;;;;;3.20;1.20;;;20.30;99.90;;;;;;5136931;27;20046;-88
2022/07/11 02:35:47;;;;;;;3.78;1.35;;;20.30;99.90;;;;;;5119772;27;20023;-87
2022/07/11 02:38:14;;;;;;;3.85;1.27;;;20.30;99.90;;;;;;5138309;27;20019;-88
2022/07/11 02:40:41;;;;;;;5.55;1.40;;;20.30;99.90;;;;;;5138545;27;20050;-88
2022/07/11 02:43:07;;;;;;;1.63;1.08;;;20.20;99.90;;;;;;5120373;27;20023;-88
2022/07/11 02:45:33;;;;;;;7.00;1.98;;;20.20;99.90;;;;;;5119965;27;20038;-88
2022/07/11 02:48:00;;;;;;;3.80;1.20;;;20.20;99.90;;;;;;5120915;27;20502;-88
2022/07/11 02:50:27;;;;;;;7.35;1.48;;;20.20;99.90;;;;;;5136320;27;20019;-89
2022/07/11 02:52:52;;;;;;;3.92;1.60;;;20.20;99.90;;;;;;5118806;27;20062;-88
2022/07/11 02:55:18;;;;;;;4.60;1.42;;;20.20;99.90;;;;;;5119836;27;20393;-88
2022/07/11 02:57:44;;;;;;;4.03;1.30;;;20.20;99.90;;;;;;5120612;27;20016;-88
2022/07/11 03:00:17;;;;;;;3.42;1.33;;;20.20;99.90;;;;;;5120648;27;20023;-88
2022/07/11 03:02:47;;;;;;;4.75;1.70;;;20.20;99.90;;;;;;5136827;27;20015;-88
2022/07/11 03:05:13;;;;;;;4.82;1.50;;;20.20;99.90;;;;;;5135263;27;20114;-88
2022/07/11 03:07:39;;;;;;;3.65;1.20;;;20.10;99.90;;;;;;5118742;27;20501;-89
2022/07/11 03:10:05;;;;;;;7.47;2.10;;;20.10;99.90;;;;;;5119543;27;20034;-88
2022/07/11 03:12:31;;;;;;;7.20;1.50;;;20.10;99.90;;;;;;5118825;27;20068;-88
2022/07/11 03:14:57;;;;;;;4.75;1.55;;;20.10;99.90;;;;;;5118465;27;20123;-88
2022/07/11 03:17:24;;;;;;;7.35;1.38;;;20.10;99.90;;;;;;5119002;27;20051;-88
2022/07/11 03:19:51;;;;;;;5.57;1.30;;;20.10;99.90;;;;;;5136003;27;20096;-88
2022/07/11 03:22:17;;;;;;;6.95;1.58;;;20.10;99.90;;;;;;5119309;27;20031;-88
2022/07/11 03:24:43;;;;;;;8.02;1.60;;;20.10;99.90;;;;;;5136428;27;20460;-88
2022/07/11 03:27:29;;;;;;;;;;;;;;;;;;;;;
2022/07/11 03:30:36;;;;;;;6.63;1.60;;;20.10;99.90;;;;;;5084989;28;20406;-89
2022/07/11 03:36:24;;;;;;;4.18;1.38;;;20.00;99.90;;;;;;5055874;28;20067;-88
2022/07/11 03:38:50;;;;;;;5.32;1.40;;;20.00;99.90;;;;;;5053375;28;20043;-88
2022/07/11 03:41:17;;;;;;;4.68;1.30;;;20.00;99.90;;;;;;5098518;28;20034;-88
2022/07/11 03:43:46;;;;;;;5.65;1.60;;;20.00;99.90;;;;;;5097833;28;20054;-88
2022/07/11 03:46:12;;;;;;;5.13;1.60;;;20.00;99.90;;;;;;5097528;28;20024;-88
2022/07/11 03:48:39;;;;;;;4.75;1.40;;;20.00;99.90;;;;;;5096270;28;20099;-89
2022/07/11 03:51:05;;;;;;;4.88;1.52;;;19.90;99.90;;;;;;5114643;28;20380;-88
2022/07/11 03:53:32;;;;;;;4.75;1.30;;;19.90;99.90;;;;;;5060960;28;20051;-88
2022/07/11 03:56:02;;;;;;;6.05;1.58;;;20.00;99.90;;;;;;5061241;28;20043;-88
2022/07/11 03:58:28;;;;;;;3.60;1.40;;;19.90;99.90;;;;;;5093994;28;20389;-88
2022/07/11 04:00:55;;;;;;;3.58;1.33;;;19.90;99.90;;;;;;5093914;28;20031;-88
2022/07/11 04:03:21;;;;;;;2.72;1.30;;;19.90;99.90;;;;;;5060780;28;20024;-88
2022/07/11 04:05:47;;;;;;;4.25;1.42;;;19.90;99.90;;;;;;5094554;28;20103;-88
2022/07/11 04:08:15;;;;;;;5.68;1.50;;;19.90;99.90;;;;;;5078392;28;20097;-88
2022/07/11 04:10:41;;;;;;;4.82;1.50;;;19.90;99.90;;;;;;5077369;28;20032;-88
2022/07/11 04:13:07;;;;;;;4.93;1.33;;;19.90;99.90;;;;;;5060894;28;20031;-89
2022/07/11 04:15:36;;;;;;;4.35;1.60;;;19.90;99.90;;;;;;5060899;28;20032;-88
2022/07/11 04:18:03;;;;;;;4.63;1.52;;;19.80;99.90;;;;;;5077489;28;20065;-88
2022/07/11 04:20:30;;;;;;;4.47;1.73;;;19.90;99.90;;;;;;5094515;28;20046;-88
2022/07/11 04:22:55;;;;;;;6.68;1.80;;;19.80;99.90;;;;;;5060429;28;20024;-88
2022/07/11 04:25:21;;;;;;;4.65;1.60;;;19.80;99.90;;;;;;5060589;28;20123;-88
2022/07/11 04:27:47;;;;;;;6.50;1.67;;;19.80;99.90;;;;;;5060325;28;20048;-89
2022/07/11 04:30:13;;;;;;;5.50;1.60;;;19.80;99.90;;;;;;5064087;28;20123;-89
2022/07/11 04:32:39;;;;;;;3.40;1.38;;;19.80;99.90;;;;;;5081180;28;20385;-90
2022/07/11 04:35:11;;;;;;;5.25;1.60;;;19.80;99.90;;;;;;5064623;28;20491;-90
2022/07/11 04:37:37;;;;;;;6.90;1.50;;;19.80;99.90;;;;;;5066073;28;20038;-90
2022/07/11 04:40:03;;;;;;;5.22;1.80;;;19.80;99.90;;;;;;5080407;28;20020;-91
2022/07/11 04:42:29;;;;;;;6.15;1.88;;;19.80;99.90;;;;;;5064121;28;20027;-91
2022/07/11 04:44:56;;;;;;;4.32;1.65;;;19.80;99.90;;;;;;5080903;28;20063;-90
2022/07/11 04:47:26;;;;;;;4.85;1.80;;;19.80;99.90;;;;;;5063878;28;20039;-90
2022/07/11 04:49:53;;;;;;;6.80;1.77;;;19.80;99.90;;;;;;5083371;28;20062;-92
2022/07/11 04:52:19;;;;;;;3.42;1.88;;;19.80;99.90;;;;;;5118758;27;20043;-93
2022/07/11 04:54:44;;;;;;;5.18;1.60;;;19.70;99.90;;;;;;5137974;27;20027;-89
2022/07/11 04:57:11;;;;;;;7.32;1.73;;;19.70;99.90;;;;;;5101548;28;20093;-89
2022/07/11 04:59:39;;;;;;;5.00;1.70;;;19.70;99.90;;;;;;5101806;28;20051;-88
2022/07/11 05:02:07;;;;;;;4.60;1.90;;;19.70;99.90;;;;;;5118242;28;20054;-89
2022/07/11 05:04:32;;;;;;;3.97;1.60;;;19.70;99.90;;;;;;5118445;28;20040;-89
2022/07/11 05:06:58;;;;;;;4.82;1.60;;;19.70;99.90;;;;;;5101348;28;20122;-88
2022/07/11 05:09:24;;;;;;;2.58;1.40;;;19.70;99.90;;;;;;5137017;27;20016;-88
2022/07/11 05:11:51;;;;;;;3.08;1.50;;;19.70;99.90;;;;;;5120026;28;20030;-89
2022/07/11 05:14:16;;;;;;;2.70;1.33;;;19.70;99.90;;;;;;5118269;28;20023;-89
2022/07/11 05:16:42;;;;;;;3.33;1.50;;;19.70;99.90;;;;;;5113328;27;20015;-89
2022/07/11 05:19:36;;;;;;;6.97;1.98;;;19.70;99.90;;;;;;5140380;27;20095;-87
2022/07/11 05:22:25;;;;;;;3.97;1.40;;;19.60;99.90;;;;;;5156970;27;20019;-89
2022/07/11 05:25:02;;;;;;;4.07;1.63;;;19.70;99.90;;;;;;5137344;27;20027;-89
2022/07/11 05:27:53;;;;;;;3.90;1.50;;;19.70;99.90;;;;;;5128208;27;20166;-89
2022/07/11 05:30:21;;;;;;;3.20;1.43;;;19.60;99.90;;;;;;5120933;27;20035;-89
2022/07/11 05:36:34;;;;;;;2.47;1.30;;;19.60;99.90;;;;;;5117524;28;20030;-89
2022/07/11 05:39:27;;;;;;;3.78;1.30;;;19.60;99.90;;;;;;5098688;28;20016;-92
2022/07/11 05:41:52;;;;;;;1.65;1.20;;;19.60;99.90;;;;;;5095068;27;20023;-92
2022/07/11 05:44:18;;;;;;;2.03;1.25;;;19.60;99.90;;;;;;5120907;27;20038;-92
2022/07/11 05:46:45;;;;;;;2.22;1.20;;;19.60;99.90;;;;;;5120249;27;20031;-92
2022/07/11 05:49:16;;;;;;;2.58;1.10;;;19.60;99.90;;;;;;5120183;27;20127;-92
2022/07/11 05:51:54;;;;;;;1.58;1.17;;;19.60;99.90;;;;;;5122427;27;20078;-92
2022/07/11 05:54:20;;;;;;;1.63;0.95;;;19.60;99.90;;;;;;5101999;28;20122;-92
2022/07/11 05:56:46;;;;;;;1.50;1.00;;;19.60;99.90;;;;;;5070144;28;20028;-92
2022/07/11 05:59:15;;;;;;;3.08;1.45;;;19.60;99.90;;;;;;5100528;28;20028;-92
2022/07/11 06:01:40;;;;;;;2.35;1.30;;;19.70;99.90;;;;;;5116477;28;20488;-91
2022/07/11 06:04:12;;;;;;;2.35;1.17;;;19.70;99.90;;;;;;5091625;28;20503;-90
2022/07/11 06:06:46;;;;;;;2.30;0.90;;;19.70;99.90;;;;;;5103093;22;20043;-91
2022/07/11 06:09:21;;;;;;;1.90;1.00;;;19.70;99.90;;;;;;5119485;27;20059;-91
2022/07/11 06:11:56;;;;;;;1.63;1.20;;;19.60;99.90;;;;;;5100573;27;20059;-90
2022/07/11 06:14:23;;;;;;;2.85;1.17;;;19.70;99.90;;;;;;5102638;27;20024;-91
2022/07/11 06:16:49;;;;;;;2.80;1.05;;;19.60;99.90;;;;;;5102915;27;20479;-90
2022/07/11 06:19:18;;;;;;;2.55;1.27;;;19.70;99.90;;;;;;5104890;27;20079;-91
2022/07/11 06:21:48;;;;;;;1.10;1.00;;;19.70;99.90;;;;;;5127294;27;20015;-88
2022/07/11 06:24:14;;;;;;;2.80;1.00;;;19.70;99.90;;;;;;5099150;28;20020;-88
2022/07/11 06:26:40;;;;;;;2.63;1.30;;;19.70;99.90;;;;;;5102093;27;20069;-88
2022/07/11 06:29:08;;;;;;;2.58;1.20;;;19.70;99.90;;;;;;5101198;27;20024;-88
2022/07/11 06:31:33;;;;;;;1.10;1.00;;;19.70;99.90;;;;;;5118859;27;20107;-88
2022/07/11 06:34:08;;;;;;;3.65;1.15;;;19.70;99.90;;;;;;5101633;27;20042;-88
2022/07/11 06:36:42;;;;;;;2.05;1.23;;;19.70;99.90;;;;;;5101759;27;20019;-91
2022/07/11 06:39:14;;;;;;;1.42;1.00;;;19.70;99.90;;;;;;5102028;27;20474;-91
2022/07/11 06:41:52;;;;;;;;;;;;;;;;;;;;;
2022/07/11 06:44:20;;;;;;;1.15;1.00;;;19.70;99.90;;;;;;5120436;27;20375;-91
2022/07/11 06:46:53;;;;;;;2.25;1.20;;;19.70;99.90;;;;;;5101929;27;20023;-92
2022/07/11 06:49:19;;;;;;;1.95;1.10;;;19.70;99.90;;;;;;5119010;27;20027;-91
2022/07/11 06:51:45;;;;;;;1.67;1.13;;;19.70;99.90;;;;;;5118840;27;20490;-91
2022/07/11 06:54:43;;;;;;;1.30;1.10;;;19.70;99.90;;;;;;5127925;27;20031;-91
2022/07/11 06:57:11;;;;;;;2.78;1.00;;;19.80;99.90;;;;;;5090278;27;20035;-91
2022/07/11 06:59:37;;;;;;;1.13;0.80;;;19.80;99.90;;;;;;5104171;27;20069;-91
2022/07/11 07:02:03;;;;;;;1.33;1.00;;;19.80;99.90;;;;;;5101587;27;20011;-92
2022/07/11 07:04:31;;;;;;;2.22;0.82;;;19.80;99.90;;;;;;5088223;28;20504;-91
2022/07/11 07:07:02;;;;;;;1.58;1.05;;;19.80;99.90;;;;;;5113841;28;20052;-92
2022/07/11 07:09:31;;;;;;;1.88;1.10;;;19.80;99.90;;;;;;5098773;28;20080;-92
2022/07/11 07:11:57;;;;;;;0.85;0.85;;;19.80;99.90;;;;;;5114785;28;20027;-91
2022/07/11 07:14:23;;;;;;;1.10;1.02;;;19.80;99.90;;;;;;5077440;28;20028;-86
2022/07/11 07:16:49;;;;;;;1.05;0.95;;;19.80;99.90;;;;;;5097020;28;20545;-86
2022/07/11 07:19:15;;;;;;;1.08;0.90;;;19.80;99.90;;;;;;5097344;28;20027;-86
2022/07/11 07:21:40;;;;;;;2.30;0.98;;;19.90;99.90;;;;;;5097489;28;20020;-86
2022/07/11 07:24:06;;;;;;;1.30;0.93;;;19.90;99.90;;;;;;5097793;27;20524;-86
2022/07/11 07:26:33;;;;;;;1.00;0.90;;;19.90;99.90;;;;;;5097280;28;20039;-86
2022/07/11 07:28:59;;;;;;;1.20;0.90;;;19.90;99.90;;;;;;5107937;27;20041;-86
2022/07/11 07:31:25;;;;;;;0.80;0.80;;;19.90;99.90;;;;;;5096757;28;20084;-86
2022/07/11 07:33:51;;;;;;;1.80;0.95;;;19.90;99.90;;;;;;5114037;27;20054;-86
2022/07/11 07:36:17;;;;;;;1.33;0.80;;;20.00;99.90;;;;;;5090572;28;20134;-86
2022/07/11 07:38:47;;;;;;;0.77;0.70;;;20.00;99.90;;;;;;5097714;28;20112;-86
2022/07/11 07:41:16;;;;;;;1.63;1.15;;;20.00;99.90;;;;;;5078015;28;20024;-88
2022/07/11 07:43:42;;;;;;;6.13;1.40;;;20.00;99.90;;;;;;5088892;28;20028;-89
2022/07/11 07:46:11;;;;;;;1.27;0.90;;;20.00;99.90;;;;;;5083006;28;20023;-88
2022/07/11 07:48:40;;;;;;;1.23;1.00;;;20.10;99.90;;;;;;5093998;28;20032;-88
2022/07/11 07:51:07;;;;;;;1.23;0.80;;;20.10;99.90;;;;;;5083766;28;20035;-89
2022/07/11 07:53:32;;;;;;;1.02;0.82;;;20.10;99.90;;;;;;5107546;28;20049;-88
2022/07/11 07:55:58;;;;;;;0.75;0.60;;;20.10;99.90;;;;;;5083939;28;20028;-88
2022/07/11 07:58:24;;;;;;;0.82;0.70;;;20.10;99.90;;;;;;5092138;28;20492;-88
2022/07/11 08:03:50;;;;;;;1.40;0.80;;;20.20;99.90;;;;;;5118523;28;20043;-88
2022/07/11 08:06:25;;;;;;;0.60;0.57;;;20.20;99.90;;;;;;5105579;28;20056;-88
2022/07/11 08:08:52;;;;;;;1.35;0.82;;;20.20;99.90;;;;;;5121559;28;20020;-88
2022/07/11 08:11:18;;;;;;;2.55;0.90;;;20.30;99.90;;;;;;5086031;28;20024;-87
2022/07/11 08:13:44;;;;;;;1.20;0.70;;;20.30;99.90;;;;;;5097052;28;20078;-88
2022/07/11 08:16:10;;;;;;;0.70;0.70;;;20.40;99.90;;;;;;5068552;28;20024;-87
2022/07/11 08:21:58;;;;;;;0.70;0.70;;;20.40;99.90;;;;;;5119084;28;20111;-87
2022/07/11 08:24:23;;;;;;;0.68;0.68;;;20.40;99.90;;;;;;5094572;28;20406;-88
2022/07/11 08:26:49;;;;;;;0.70;0.60;;;20.40;99.90;;;;;;5094960;28;20128;-88
2022/07/11 08:29:15;;;;;;;1.10;0.80;;;20.40;99.90;;;;;;5096479;28;20028;-88
2022/07/11 08:31:41;;;;;;;1.10;0.80;;;20.50;99.90;;;;;;5097257;28;20423;-87
2022/07/11 08:34:07;;;;;;;1.60;0.80;;;20.50;99.90;;;;;;5093699;28;20123;-87
2022/07/11 08:36:34;;;;;;;1.50;0.90;;;20.50;99.90;;;;;;5093569;28;20028;-87
2022/07/11 08:39:03;;;;;;;1.52;0.90;;;20.50;99.90;;;;;;5097180;28;20427;-87
2022/07/11 08:41:31;;;;;;;1.75;0.90;;;20.50;99.90;;;;;;5093355;28;20028;-87
2022/07/11 08:43:58;;;;;;;1.63;1.00;;;20.60;99.90;;;;;;5082877;28;20024;-88
2022/07/11 08:46:27;;;;;;;2.38;0.63;;;20.50;99.90;;;;;;5096868;28;20063;-88
2022/07/11 08:48:54;;;;;;;0.98;0.88;;;20.50;99.90;;;;;;5097070;28;20492;-88
2022/07/11 08:51:23;;;;;;;0.88;0.70;;;20.60;99.90;;;;;;5097200;28;20429;-87
2022/07/11 08:53:50;;;;;;;1.27;0.60;;;20.50;99.90;;;;;;5097308;28;20080;-87
2022/07/11 08:56:18;;;;;;;1.20;0.70;;;20.60;99.90;;;;;;5086840;28;20028;-86
2022/07/11 08:58:47;;;;;;;1.60;0.90;;;20.60;99.90;;;;;;5073262;28;20054;-88
2022/07/11 09:01:19;;;;;;;1.23;1.00;;;20.60;99.90;;;;;;5105373;28;20024;-88
2022/07/11 09:03:45;;;;;;;1.42;0.93;;;20.60;99.90;;;;;;5107914;28;20070;-88
2022/07/11 09:06:13;;;;;;;1.02;0.80;;;20.70;99.90;;;;;;5099465;27;20573;-88
2022/07/11 09:08:38;;;;;;;1.17;1.02;;;20.70;99.90;;;;;;5100330;28;20105;-87
2022/07/11 09:11:05;;;;;;;1.58;0.90;;;20.70;99.90;;;;;;5100052;28;20544;-87
2022/07/11 09:13:30;;;;;;;1.15;0.77;;;20.70;99.90;;;;;;5099641;28;20023;-87
2022/07/11 09:16:05;;;;;;;2.85;1.00;;;20.70;99.90;;;;;;5119377;27;20360;-87
2022/07/11 09:18:39;;;;;;;1.25;0.88;;;20.60;99.90;;;;;;5120596;27;20027;-88
2022/07/11 09:26:40;;;;;;;2.83;1.20;;;20.70;99.90;;;;;;5126900;27;20050;-88
2022/07/11 09:29:14;;;;;;;1.65;1.20;;;20.70;99.90;;;;;;5123957;27;20031;-87
2022/07/11 09:35:02;;;;;;;2.00;1.08;;;20.70;99.90;;;;;;5142466;27;20042;-86
2022/07/11 09:37:43;;;;;;;1.40;0.80;;;20.70;99.90;;;;;;5105391;27;20115;-87
2022/07/11 09:40:15;;;;;;;0.82;0.70;;;20.80;99.90;;;;;;5122462;27;20015;-91
2022/07/11 09:42:54;;;;;;;1.58;0.98;;;20.80;99.90;;;;;;5127378;27;20436;-91
2022/07/11 09:45:24;;;;;;;1.52;0.80;;;20.80;99.90;;;;;;5100322;28;20552;-90
2022/07/11 09:47:52;;;;;;;0.73;0.70;;;20.80;99.90;;;;;;5085452;27;20032;-89
2022/07/11 09:50:27;;;;;;;0.85;0.77;;;20.90;99.90;;;;;;5139495;27;20522;-92
2022/07/11 09:53:09;;;;;;;0.77;0.50;;;20.90;99.90;;;;;;5121577;27;20096;-92
2022/07/11 09:55:37;;;;;;;1.75;0.73;;;20.90;99.90;;;;;;5090041;27;20020;-92
2022/07/11 09:58:08;;;;;;;0.95;0.70;;;20.90;99.90;;;;;;5120337;27;20164;-91
2022/07/11 10:01:37;;;;;;;0.73;0.73;;;21.00;99.90;;;;;;5121044;27;20023;-91
2022/07/11 10:04:05;;;;;;;2.50;1.10;;;21.00;99.90;;;;;;5120418;27;20488;-91
2022/07/11 10:06:40;;;;;;;1.75;0.90;;;21.00;99.90;;;;;;5100549;28;20411;-92
2022/07/11 10:09:06;;;;;;;1.85;1.10;;;21.00;99.90;;;;;;5119730;27;20352;-91
2022/07/11 10:12:00;;;;;;;2.20;1.30;;;21.00;99.90;;;;;;5122084;27;20023;-92
2022/07/11 10:21:47;;;;;;;2.17;1.17;;;21.00;99.90;;;;;;5051522;28;20066;-92
2022/07/11 10:25:21;;;;;;;1.05;0.95;;;21.00;99.90;;;;;;5045468;28;20025;-92
2022/07/11 10:31:25;;;;;;;1.13;0.93;;;21.00;99.90;;;;;;5055662;28;20097;-92
2022/07/11 10:34:05;;;;;;;1.00;0.80;;;21.10;99.90;;;;;;5079776;27;20499;-94
2022/07/11 10:36:40;;;;;;;0.80;0.80;;;21.10;99.90;;;;;;5122111;27;20114;-92
2022/07/11 10:39:17;;;;;;;0.63;0.60;;;21.10;99.90;;;;;;5123570;27;20047;-93
2022/07/11 10:41:43;;;;;;;0.80;0.80;;;21.20;99.90;;;;;;5123282;27;20033;-92
2022/07/11 10:44:10;;;;;;;0.80;0.65;;;21.20;99.90;;;;;;5122775;27;20594;-92
2022/07/11 10:46:35;;;;;;;3.92;1.17;;;21.30;99.90;;;;;;5130208;27;20029;-92
2022/07/11 10:52:11;;;;;;;0.80;0.70;;;21.40;99.90;;;;;;5129644;27;20038;-92
2022/07/11 10:54:48;;;;;;;1.05;0.85;;;21.40;99.90;;;;;;5122621;27;20030;-92
2022/07/11 10:57:17;;;;;;;0.95;0.85;;;21.50;99.90;;;;;;5122471;27;20041;-92
2022/07/11 10:59:56;;;;;;;1.77;0.88;;;21.50;99.90;;;;;;5120757;27;20015;-91
2022/07/11 11:02:22;;;;;;;1.25;0.63;;;21.50;99.90;;;;;;5119334;27;20019;-91
2022/07/11 11:04:58;;;;;;;1.92;0.70;;;21.50;99.90;;;;;;5119349;27;20023;-91
2022/07/11 11:07:59;;;;;;;0.70;0.70;;;21.50;99.90;;;;;;5118874;27;20134;-90
2022/07/11 11:10:38;;;;;;;2.72;0.82;;;21.60;99.90;;;;;;5118762;27;20026;-90
2022/07/11 11:13:10;;;;;;;2.38;0.98;;;21.60;99.90;;;;;;5118938;27;20035;-91
2022/07/11 11:15:59;;;;;;;1.77;0.80;;;21.60;99.90;;;;;;5119015;27;20378;-90
2022/07/11 11:18:24;;;;;;;0.60;0.57;;;21.70;99.90;;;;;;5118818;27;20024;-91
2022/07/11 11:21:09;;;;;;;3.55;0.90;;;21.70;99.90;;;;;;5121566;27;20022;-90
2022/07/11 11:23:59;;;;;;;1.17;0.60;;;21.70;99.90;;;;;;5124143;27;20372;-90
2022/07/11 11:26:53;;;;;;;2.50;0.88;;;21.70;99.90;;;;;;5131227;27;20173;-92
2022/07/11 11:29:28;;;;;;;0.90;0.80;;;21.80;99.90;;;;;;5106521;28;20023;-91
2022/07/11 11:38:09;;;;;;;0.88;0.60;;;21.80;99.90;;;;;;5124220;27;20159;-90
2022/07/11 11:40:46;;;;;;;0.80;0.60;;;21.80;99.90;;;;;;5098694;27;20027;-89
2022/07/11 11:43:21;;;;;;;0.55;0.55;;;21.80;99.90;;;;;;5123204;27;20015;-90
2022/07/11 11:45:51;;;;;;;0.50;0.50;;;21.80;99.90;;;;;;5121761;27;20023;-89
2022/07/11 11:48:30;;;;;;;0.98;0.50;;;21.80;99.90;;;;;;5101683;27;20019;-89
2022/07/11 11:51:16;;;;;;;0.50;0.50;;;21.90;99.90;;;;;;5117727;27;20421;-89
2022/07/11 11:53:46;;;;;;;1.15;0.70;;;21.90;99.90;;;;;;5126689;27;20031;-89
2022/07/11 11:56:16;;;;;;;0.70;0.70;;;21.90;99.90;;;;;;5120129;27;20532;-88
2022/07/11 11:58:43;;;;;;;1.20;0.52;;;22.00;99.90;;;;;;5124008;27;20550;-87
2022/07/11 12:01:10;;;;;;;2.45;0.75;;;22.00;99.90;;;;;;5135341;27;20030;-89
2022/07/11 12:03:50;;;;;;;1.25;0.85;;;22.10;99.90;;;;;;5093417;28;20438;-89
2022/07/11 12:06:16;;;;;;;0.60;0.60;;;22.10;99.90;;;;;;5119590;28;20099;-90
2022/07/11 12:11:35;;;;;;;0.90;0.65;;;22.20;99.90;;;;;;5074823;27;20419;-89
2022/07/11 12:14:17;;;;;;;0.80;0.77;;;22.20;99.90;;;;;;5100736;27;20444;-89
2022/07/11 12:16:49;;;;;;;1.40;0.80;;;22.20;99.90;;;;;;5083963;28;20034;-90
2022/07/11 12:29:44;;;;;;;0.88;0.75;;;22.40;99.90;;;;;;5136485;28;20067;-90
2022/07/11 12:32:13;;;;;;;2.70;0.90;;;22.40;99.90;;;;;;5072796;28;20036;-91
2022/07/11 12:41:44;;;;;;;0.95;0.63;;;22.50;99.90;;;;;;5017028;28;20029;-91
2022/07/11 12:47:23;;;;;;;0.60;0.60;;;22.60;99.90;;;;;;5001710;28;20037;-91
2022/07/11 12:49:48;;;;;;;2.47;0.70;;;22.60;99.90;;;;;;5004321;28;20046;-92
2022/07/11 12:53:09;;;;;;;1.23;0.70;;;22.60;99.90;;;;;;5017656;28;20506;-91
2022/07/11 13:03:37;;;;;;;1.48;0.70;;;22.60;99.90;;;;;;4998670;28;20122;-91
2022/07/11 13:09:50;;;;;;;0.85;0.70;;;22.60;99.90;;;;;;4998773;28;20057;-91
2022/07/11 13:12:15;;;;;;;0.73;0.73;;;22.60;99.90;;;;;;5008465;28;20038;-91
2022/07/11 13:17:28;;;;;;;1.63;0.73;;;22.70;99.90;;;;;;5123480;27;20042;-91
2022/07/11 13:19:56;;;;;;;0.85;0.70;;;22.70;99.90;;;;;;5102189;28;20524;-91
2022/07/11 13:22:30;;;;;;;0.50;0.50;;;22.70;99.90;;;;;;5120217;27;20467;-92
2022/07/11 13:25:06;;;;;;;2.47;0.70;;;22.70;99.90;;;;;;5103851;27;20486;-91
2022/07/11 13:28:19;;;;;;;2.72;1.02;;;22.80;99.90;;;;;;5105162;27;20027;-90
2022/07/11 13:30:44;;;;;;;1.60;0.70;;;22.80;99.90;;;;;;5110761;27;20384;-90
2022/07/11 13:33:16;;;;;;;1.65;0.70;;;22.80;99.90;;;;;;5117706;27;20023;-90
2022/07/11 13:35:52;;;;;;;1.20;0.60;;;22.80;99.90;;;;;;5104116;27;20395;-91
2022/07/11 13:38:19;;;;;;;1.15;0.63;;;22.90;99.90;;;;;;5121440;27;20439;-91
2022/07/11 13:40:54;;;;;;;0.77;0.50;;;22.90;99.90;;;;;;5104687;27;20028;-90
2022/07/11 13:43:19;;;;;;;0.60;0.60;;;22.90;99.90;;;;;;5101303;27;20114;-92
2022/07/11 13:45:47;;;;;;;1.30;0.65;;;22.90;99.90;;;;;;5124835;27;20548;-91
2022/07/11 13:48:13;;;;;;;1.30;0.50;;;23.00;99.90;;;;;;5129723;27;20019;-92
2022/07/11 13:50:39;;;;;;;0.80;0.50;;;23.00;99.90;;;;;;5105650;27;20550;-90
2022/07/11 13:53:18;;;;;;;0.70;0.50;;;23.00;99.90;;;;;;5112165;27;20027;-90
2022/07/11 13:55:44;;;;;;;1.95;0.50;;;23.10;99.90;;;;;;5106227;27;20040;-90
2022/07/11 13:58:24;;;;;;;1.08;0.63;;;23.10;99.90;;;;;;5104439;27;20073;-91
2022/07/11 14:00:59;;;;;;;3.50;0.87;;;23.20;99.90;;;;;;5107644;27;20031;-90
2022/07/11 14:03:25;;;;;;;1.75;0.82;;;23.20;99.90;;;;;;5091153;28;20329;-90
2022/07/11 14:05:51;;;;;;;1.48;0.88;;;23.20;99.90;;;;;;5102098;27;20477;-91
2022/07/11 14:08:17;;;;;;;1.40;0.70;;;23.30;99.90;;;;;;5094694;27;20084;-90
2022/07/11 14:10:42;;;;;;;0.75;0.50;;;23.30;99.90;;;;;;5109076;27;20110;-90
2022/07/11 14:13:08;;;;;;;0.50;0.40;;;23.40;99.90;;;;;;5108701;27;20022;-91
2022/07/11 14:15:34;;;;;;;1.15;0.50;;;23.40;99.90;;;;;;5110218;27;20105;-91
2022/07/11 14:18:00;;;;;;;0.95;0.60;;;23.40;99.90;;;;;;5106099;27;20035;-90
2022/07/11 14:20:26;;;;;;;0.43;0.40;;;23.40;99.90;;;;;;5108424;28;20115;-91
2022/07/11 14:22:51;;;;;;;0.93;0.40;;;23.50;99.90;;;;;;5097220;28;20494;-91
2022/07/11 14:25:17;;;;;;;0.30;0.30;;;23.50;99.90;;;;;;5099302;28;20114;-91
2022/07/11 14:27:43;;;;;;;1.38;0.30;;;23.60;99.90;;;;;;5101407;27;20472;-91
2022/07/11 14:30:12;;;;;;;0.77;0.30;;;23.70;99.90;;;;;;5099340;28;20030;-91
2022/07/11 14:32:38;;;;;;;0.28;0.28;;;23.80;99.90;;;;;;5108590;27;20092;-91